sensor_id;sensor_type;location;lat;lon;timestamp;temperature;humidity
31733;DHT22;18312;51.486;7.144;2024-01-15T00:00:57;1.30;99.90
31733;DHT22;18312;51.486;7.144;2024-01-15T00:03:24;1.30;99.90
31733;DHT22;18312;51.486;7.144;2024-01-15T00:05:50;1.40;99.90
31733;DHT22;18312;51.486;7.144;2024-01-15T00:08:17;1.40;99.90
31733;DHT22;18312;51.486;7.144;2024-01-15T00:10:44;1.40;99.90
31733;DHT22;18312;51.486;7.144;2024-01-15T00:13:10;1.40;99.90
31733;DHT22;18312;51.486;7.144;2024-01-15T00:15:37;1.40;99.90
31733;DHT22;18312;51.486;7.144;2024-01-15T00:18:06;1.40;99.90
31733;DHT22;18312;51.486;7.144;2024-01-15T00:20:32;1.40;99.90
31733;DHT22;18312;51.486;7.144;2024-01-15T00:22:59;1.40;99.90
31733;DHT22;18312;51.486;7.144;2024-01-15T00:25:26;1.40;99.90
31733;DHT22;18312;51.486;7.144;2024-01-15T00:27:52;1.40;99.90
31733;DHT22;18312;51.486;7.144;2024-01-15T00:30:19;1.50;99.90
31733;DHT22;18312;51.486;7.144;2024-01-15T00:32:46;1.40;99.90
31733;DHT22;18312;51.486;7.144;2024-01-15T00:35:14;1.40;99.90
31733;DHT22;18312;51.486;7.144;2024-01-15T00:37:40;1.40;99.90
31733;DHT22;18312;51.486;7.144;2024-01-15T00:40:08;1.50;99.90
31733;DHT22;18312;51.486;7.144;2024-01-15T00:42:35;1.40;99.90
31733;DHT22;18312;51.486;7.144;2024-01-15T00:45:01;1.40;99.90
31733;DHT22;18312;51.486;7.144;2024-01-15T00:47:28;1.40;99.90
31733;DHT22;18312;51.486;7.144;2024-01-15T00:49:55;1.40;99.90
31733;DHT22;18312;51.486;7.144;2024-01-15T00:52:23;1.50;99.90
31733;DHT22;18312;51.486;7.144;2024-01-15T00:54:49;1.40;99.90
31733;DHT22;18312;51.486;7.144;2024-01-15T00:57:16;1.50;99.90
31733;DHT22;18312;51.486;7.144;2024-01-15T00:59:44;1.40;99.90
31733;DHT22;18312;51.486;7.144;2024-01-15T01:02:11;1.40;99.90
31733;DHT22;18312;51.486;7.144;2024-01-15T01:04:37;1.40;99.90
31733;DHT22;18312;51.486;7.144;2024-01-15T01:07:04;1.50;99.90
31733;DHT22;18312;51.486;7.144;2024-01-15T01:09:32;1.50;99.90
31733;DHT22;18312;51.486;7.144;2024-01-15T01:11:59;1.50;99.90
31733;DHT22;18312;51.486;7.144;2024-01-15T01:14:25;1.50;99.90
31733;DHT22;18312;51.486;7.144;2024-01-15T01:16:52;1.50;99.90
31733;DHT22;18312;51.486;7.144;2024-01-15T01:19:19;1.50;99.90
31733;DHT22;18312;51.486;7.144;2024-01-15T01:21:46;1.50;99.90
31733;DHT22;18312;51.486;7.144;2024-01-15T01:24:12;1.50;99.90
31733;DHT22;18312;51.486;7.144;2024-01-15T01:26:40;1.50;99.90
31733;DHT22;18312;51.486;7.144;2024-01-15T01:29:07;1.50;99.90
31733;DHT22;18312;51.486;7.144;2024-01-15T01:31:34;1.50;99.90
31733;DHT22;18312;51.486;7.144;2024-01-15T01:34:00;1.50;99.90
31733;DHT22;18312;51.486;7.144;2024-01-15T01:36:27;1.50;99.90
31733;DHT22;18312;51.486;7.144;2024-01-15T01:38:54;1.50;99.90
31733;DHT22;18312;51.486;7.144;2024-01-15T01:41:20;1.50;99.90
31733;DHT22;18312;51.486;7.144;2024-01-15T01:43:50;1.50;99.90
31733;DHT22;18312;51.486;7.144;2024-01-15T01:46:17;1.50;99.90
31733;DHT22;18312;51.486;7.144;2024-01-15T01:48:44;1.50;99.90
31733;DHT22;18312;51.486;7.144;2024-01-15T01:51:11;1.50;99.90
31733;DHT22;18312;51.486;7.144;2024-01-15T01:53:38;1.50;99.90
31733;DHT22;18312;51.486;7.144;2024-01-15T01:56:06;1.50;99.90
31733;DHT22;18312;51.486;7.144;2024-01-15T01:58:33;1.60;99.90
31733;DHT22;18312;51.486;7.144;2024-01-15T02:01:01;1.50;99.90
31733;DHT22;18312;51.486;7.144;2024-01-15T02:03:29;1.50;99.90
31733;DHT22;18312;51.486;7.144;2024-01-15T02:05:56;1.50;99.90
31733;DHT22;18312;51.486;7.144;2024-01-15T02:08:23;1.50;99.90
31733;DHT22;18312;51.486;7.144;2024-01-15T02:10:50;1.60;99.90
31733;DHT22;18312;51.486;7.144;2024-01-15T02:13:17;1.60;99.90
31733;DHT22;18312;51.486;7.144;2024-01-15T02:15:44;1.50;99.90
31733;DHT22;18312;51.486;7.144;2024-01-15T02:18:12;1.50;99.90
31733;DHT22;18312;51.486;7.144;2024-01-15T02:20:39;1.50;99.90
31733;DHT22;18312;51.486;7.144;2024-01-15T02:23:10;1.50;99.90
31733;DHT22;18312;51.486;7.144;2024-01-15T02:25:37;1.50;99.90
31733;DHT22;18312;51.486;7.144;2024-01-15T02:28:06;1.50;99.90
31733;DHT22;18312;51.486;7.144;2024-01-15T02:30:34;1.50;99.90
31733;DHT22;18312;51.486;7.144;2024-01-15T02:33:03;1.50;99.90
31733;DHT22;18312;51.486;7.144;2024-01-15T02:35:30;1.60;99.90
31733;DHT22;18312;51.486;7.144;2024-01-15T02:37:56;1.60;99.90
31733;DHT22;18312;51.486;7.144;2024-01-15T02:40:24;1.60;99.90
31733;DHT22;18312;51.486;7.144;2024-01-15T02:42:51;1.60;99.90
31733;DHT22;18312;51.486;7.144;2024-01-15T02:45:18;1.60;99.90
31733;DHT22;18312;51.486;7.144;2024-01-15T02:47:44;1.60;99.90
31733;DHT22;18312;51.486;7.144;2024-01-15T02:50:11;1.60;99.90
31733;DHT22;18312;51.486;7.144;2024-01-15T02:52:38;1.50;99.90
31733;DHT22;18312;51.486;7.144;2024-01-15T02:55:05;1.60;99.90
31733;DHT22;18312;51.486;7.144;2024-01-15T02:57:33;1.60;99.90
31733;DHT22;18312;51.486;7.144;2024-01-15T03:00:00;1.60;99.90
31733;DHT22;18312;51.486;7.144;2024-01-15T03:02:27;1.60;99.90
31733;DHT22;18312;51.486;7.144;2024-01-15T03:04:54;1.60;99.90
31733;DHT22;18312;51.486;7.144;2024-01-15T03:07:20;1.60;99.90
31733;DHT22;18312;51.486;7.144;2024-01-15T03:09:47;1.60;99.90
31733;DHT22;18312;51.486;7.144;2024-01-15T03:12:14;1.60;99.90
31733;DHT22;18312;51.486;7.144;2024-01-15T03:14:42;1.60;99.90
31733;DHT22;18312;51.486;7.144;2024-01-15T03:17:08;1.60;99.90
31733;DHT22;18312;51.486;7.144;2024-01-15T03:19:36;1.60;99.90
31733;DHT22;18312;51.486;7.144;2024-01-15T03:22:03;1.60;99.90
31733;DHT22;18312;51.486;7.144;2024-01-15T03:24:31;1.60;99.90
31733;DHT22;18312;51.486;7.144;2024-01-15T03:26:58;1.60;99.90
31733;DHT22;18312;51.486;7.144;2024-01-15T03:29:25;1.60;99.90
31733;DHT22;18312;51.486;7.144;2024-01-15T03:31:53;1.60;99.90
31733;DHT22;18312;51.486;7.144;2024-01-15T03:34:20;1.60;99.90
31733;DHT22;18312;51.486;7.144;2024-01-15T03:36:47;1.60;99.90
31733;DHT22;18312;51.486;7.144;2024-01-15T03:39:13;1.60;99.90
31733;DHT22;18312;51.486;7.144;2024-01-15T03:41:40;1.70;99.90
31733;DHT22;18312;51.486;7.144;2024-01-15T03:44:07;1.70;99.90
31733;DHT22;18312;51.486;7.144;2024-01-15T03:46:34;1.70;99.90
31733;DHT22;18312;51.486;7.144;2024-01-15T03:49:02;1.70;99.90
31733;DHT22;18312;51.486;7.144;2024-01-15T03:51:29;1.70;99.90
31733;DHT22;18312;51.486;7.144;2024-01-15T03:53:55;1.70;99.90
31733;DHT22;18312;51.486;7.144;2024-01-15T03:56:22;1.70;99.90
31733;DHT22;18312;51.486;7.144;2024-01-15T03:58:49;1.70;99.90
31733;DHT22;18312;51.486;7.144;2024-01-15T04:01:15;1.70;99.90
31733;DHT22;18312;51.486;7.144;2024-01-15T04:03:42;1.70;99.90
31733;DHT22;18312;51.486;7.144;2024-01-15T04:06:10;1.70;99.90
31733;DHT22;18312;51.486;7.144;2024-01-15T04:08:37;1.70;99.90
31733;DHT22;18312;51.486;7.144;2024-01-15T04:11:03;1.80;99.90
31733;DHT22;18312;51.486;7.144;2024-01-15T04:13:32;1.80;99.90
31733;DHT22;18312;51.486;7.144;2024-01-15T04:16:00;1.80;99.90
31733;DHT22;18312;51.486;7.144;2024-01-15T04:18:26;1.70;99.90
31733;DHT22;18312;51.486;7.144;2024-01-15T04:20:53;1.70;99.90
31733;DHT22;18312;51.486;7.144;2024-01-15T04:23:21;1.70;99.90
31733;DHT22;18312;51.486;7.144;2024-01-15T04:25:48;1.70;99.90
31733;DHT22;18312;51.486;7.144;2024-01-15T04:28:14;1.70;99.90
31733;DHT22;18312;51.486;7.144;2024-01-15T04:30:41;1.70;99.90
31733;DHT22;18312;51.486;7.144;2024-01-15T04:33:08;1.70;99.90
31733;DHT22;18312;51.486;7.144;2024-01-15T04:35:35;1.70;99.90
31733;DHT22;18312;51.486;7.144;2024-01-15T04:38:01;1.70;99.90
31733;DHT22;18312;51.486;7.144;2024-01-15T04:40:29;1.70;99.90
31733;DHT22;18312;51.486;7.144;2024-01-15T04:42:56;1.70;99.90
31733;DHT22;18312;51.486;7.144;2024-01-15T04:45:23;1.70;99.90
31733;DHT22;18312;51.486;7.144;2024-01-15T04:47:53;1.70;99.90
31733;DHT22;18312;51.486;7.144;2024-01-15T04:50:20;1.70;99.90
31733;DHT22;18312;51.486;7.144;2024-01-15T04:52:47;1.70;99.90
31733;DHT22;18312;51.486;7.144;2024-01-15T04:55:13;1.70;99.90
31733;DHT22;18312;51.486;7.144;2024-01-15T04:57:42;1.80;99.90
31733;DHT22;18312;51.486;7.144;2024-01-15T05:00:10;1.80;99.90
31733;DHT22;18312;51.486;7.144;2024-01-15T05:02:38;1.80;99.90
31733;DHT22;18312;51.486;7.144;2024-01-15T05:08:27;1.80;99.90
31733;DHT22;18312;51.486;7.144;2024-01-15T05:10:54;1.80;99.90
31733;DHT22;18312;51.486;7.144;2024-01-15T05:13:22;1.80;99.90
31733;DHT22;18312;51.486;7.144;2024-01-15T05:15:49;1.80;99.90
31733;DHT22;18312;51.486;7.144;2024-01-15T05:18:16;1.80;99.90
31733;DHT22;18312;51.486;7.144;2024-01-15T05:20:43;1.80;99.90
31733;DHT22;18312;51.486;7.144;2024-01-15T05:23:09;1.80;99.90
31733;DHT22;18312;51.486;7.144;2024-01-15T05:25:36;1.90;99.90
31733;DHT22;18312;51.486;7.144;2024-01-15T05:28:04;1.80;99.90
31733;DHT22;18312;51.486;7.144;2024-01-15T05:30:32;1.80;99.90
31733;DHT22;18312;51.486;7.144;2024-01-15T05:32:58;1.80;99.90
31733;DHT22;18312;51.486;7.144;2024-01-15T05:35:26;1.80;99.90
31733;DHT22;18312;51.486;7.144;2024-01-15T05:37:53;1.80;99.90
31733;DHT22;18312;51.486;7.144;2024-01-15T05:40:20;1.80;99.90
31733;DHT22;18312;51.486;7.144;2024-01-15T05:42:46;1.80;99.90
31733;DHT22;18312;51.486;7.144;2024-01-15T05:45:13;1.80;99.90
31733;DHT22;18312;51.486;7.144;2024-01-15T05:47:41;1.80;99.90
31733;DHT22;18312;51.486;7.144;2024-01-15T05:50:09;1.80;99.90
31733;DHT22;18312;51.486;7.144;2024-01-15T05:52:36;1.80;99.90
31733;DHT22;18312;51.486;7.144;2024-01-15T05:55:04;1.80;99.90
31733;DHT22;18312;51.486;7.144;2024-01-15T05:57:31;1.80;99.90
31733;DHT22;18312;51.486;7.144;2024-01-15T05:59:57;1.80;99.90
31733;DHT22;18312;51.486;7.144;2024-01-15T06:02:24;1.80;99.90
31733;DHT22;18312;51.486;7.144;2024-01-15T06:04:52;1.80;99.90
31733;DHT22;18312;51.486;7.144;2024-01-15T06:07:19;1.80;99.90
31733;DHT22;18312;51.486;7.144;2024-01-15T06:09:45;1.80;99.90
31733;DHT22;18312;51.486;7.144;2024-01-15T06:12:12;1.80;99.90
31733;DHT22;18312;51.486;7.144;2024-01-15T06:14:39;1.80;99.90
31733;DHT22;18312;51.486;7.144;2024-01-15T06:17:06;1.80;99.90
31733;DHT22;18312;51.486;7.144;2024-01-15T06:19:33;1.90;99.90
31733;DHT22;18312;51.486;7.144;2024-01-15T06:22:01;1.90;99.90
31733;DHT22;18312;51.486;7.144;2024-01-15T06:24:28;1.90;99.90
31733;DHT22;18312;51.486;7.144;2024-01-15T06:26:54;1.90;99.90
31733;DHT22;18312;51.486;7.144;2024-01-15T06:29:21;1.90;99.90
31733;DHT22;18312;51.486;7.144;2024-01-15T06:31:49;1.90;99.90
31733;DHT22;18312;51.486;7.144;2024-01-15T06:34:16;1.90;99.90
31733;DHT22;18312;51.486;7.144;2024-01-15T06:36:43;1.90;99.90
31733;DHT22;18312;51.486;7.144;2024-01-15T06:39:11;1.80;99.90
31733;DHT22;18312;51.486;7.144;2024-01-15T06:41:37;1.80;99.90
31733;DHT22;18312;51.486;7.144;2024-01-15T06:44:08;1.80;99.90
31733;DHT22;18312;51.486;7.144;2024-01-15T06:46:35;1.80;99.90
31733;DHT22;18312;51.486;7.144;2024-01-15T06:49:02;1.80;99.90
31733;DHT22;18312;51.486;7.144;2024-01-15T06:51:29;1.90;99.90
31733;DHT22;18312;51.486;7.144;2024-01-15T06:53:56;1.90;99.90
31733;DHT22;18312;51.486;7.144;2024-01-15T06:56:24;1.80;99.90
31733;DHT22;18312;51.486;7.144;2024-01-15T06:58:50;1.70;99.90
31733;DHT22;18312;51.486;7.144;2024-01-15T07:01:17;1.70;99.90
31733;DHT22;18312;51.486;7.144;2024-01-15T07:03:44;1.70;99.90
31733;DHT22;18312;51.486;7.144;2024-01-15T07:06:10;1.80;99.90
31733;DHT22;18312;51.486;7.144;2024-01-15T07:08:37;1.80;99.90
31733;DHT22;18312;51.486;7.144;2024-01-15T07:11:04;1.80;99.90
31733;DHT22;18312;51.486;7.144;2024-01-15T07:13:33;1.80;99.90
31733;DHT22;18312;51.486;7.144;2024-01-15T07:15:59;1.80;99.90
31733;DHT22;18312;51.486;7.144;2024-01-15T07:18:26;1.80;99.90
31733;DHT22;18312;51.486;7.144;2024-01-15T07:20:53;1.80;99.90
31733;DHT22;18312;51.486;7.144;2024-01-15T07:23:19;1.90;99.90
31733;DHT22;18312;51.486;7.144;2024-01-15T07:25:46;1.90;99.90
31733;DHT22;18312;51.486;7.144;2024-01-15T07:28:13;1.80;99.90
31733;DHT22;18312;51.486;7.144;2024-01-15T07:30:41;1.80;99.90
31733;DHT22;18312;51.486;7.144;2024-01-15T07:33:08;1.90;99.90
31733;DHT22;18312;51.486;7.144;2024-01-15T07:35:34;1.90;99.90
31733;DHT22;18312;51.486;7.144;2024-01-15T07:38:01;1.90;99.90
31733;DHT22;18312;51.486;7.144;2024-01-15T07:40:28;1.90;99.90
31733;DHT22;18312;51.486;7.144;2024-01-15T07:42:54;1.90;99.90
31733;DHT22;18312;51.486;7.144;2024-01-15T07:45:21;1.90;99.90
31733;DHT22;18312;51.486;7.144;2024-01-15T07:47:49;1.90;99.90
31733;DHT22;18312;51.486;7.144;2024-01-15T07:50:16;1.90;99.90
31733;DHT22;18312;51.486;7.144;2024-01-15T07:52:43;1.90;99.90
31733;DHT22;18312;51.486;7.144;2024-01-15T07:55:10;1.90;99.90
31733;DHT22;18312;51.486;7.144;2024-01-15T07:57:36;1.90;99.90
31733;DHT22;18312;51.486;7.144;2024-01-15T08:00:04;1.90;99.90
31733;DHT22;18312;51.486;7.144;2024-01-15T08:02:32;1.90;99.90
31733;DHT22;18312;51.486;7.144;2024-01-15T08:05:00;1.90;99.90
31733;DHT22;18312;51.486;7.144;2024-01-15T08:07:26;1.90;99.90
31733;DHT22;18312;51.486;7.144;2024-01-15T08:09:53;1.80;99.90
31733;DHT22;18312;51.486;7.144;2024-01-15T08:12:20;1.90;99.90
31733;DHT22;18312;51.486;7.144;2024-01-15T08:14:47;1.80;99.90
31733;DHT22;18312;51.486;7.144;2024-01-15T08:17:14;1.80;99.90
31733;DHT22;18312;51.486;7.144;2024-01-15T08:19:41;1.80;99.90
31733;DHT22;18312;51.486;7.144;2024-01-15T08:22:10;1.70;99.90
31733;DHT22;18312;51.486;7.144;2024-01-15T08:24:36;1.70;99.90
31733;DHT22;18312;51.486;7.144;2024-01-15T08:27:03;1.60;99.90
31733;DHT22;18312;51.486;7.144;2024-01-15T08:29:30;1.60;99.90
31733;DHT22;18312;51.486;7.144;2024-01-15T08:31:59;1.60;99.90
31733;DHT22;18312;51.486;7.144;2024-01-15T08:34:25;1.50;99.90
31733;DHT22;18312;51.486;7.144;2024-01-15T08:36:52;1.50;99.90
31733;DHT22;18312;51.486;7.144;2024-01-15T08:39:20;1.50;99.90
31733;DHT22;18312;51.486;7.144;2024-01-15T08:41:47;1.40;99.90
31733;DHT22;18312;51.486;7.144;2024-01-15T08:44:13;1.40;99.90
31733;DHT22;18312;51.486;7.144;2024-01-15T08:46:40;1.30;99.90
31733;DHT22;18312;51.486;7.144;2024-01-15T08:49:07;1.30;99.90
31733;DHT22;18312;51.486;7.144;2024-01-15T08:51:33;1.40;99.90
31733;DHT22;18312;51.486;7.144;2024-01-15T08:54:00;1.30;99.90
31733;DHT22;18312;51.486;7.144;2024-01-15T08:56:28;1.30;99.90
31733;DHT22;18312;51.486;7.144;2024-01-15T08:58:55;1.30;99.90
31733;DHT22;18312;51.486;7.144;2024-01-15T09:01:22;1.30;99.90
31733;DHT22;18312;51.486;7.144;2024-01-15T09:03:49;1.30;99.90
31733;DHT22;18312;51.486;7.144;2024-01-15T09:06:16;1.30;99.90
31733;DHT22;18312;51.486;7.144;2024-01-15T09:08:44;1.20;99.90
31733;DHT22;18312;51.486;7.144;2024-01-15T09:11:11;1.20;99.90
31733;DHT22;18312;51.486;7.144;2024-01-15T09:13:39;1.30;99.90
31733;DHT22;18312;51.486;7.144;2024-01-15T09:16:06;1.30;99.90
31733;DHT22;18312;51.486;7.144;2024-01-15T09:18:32;1.30;99.90
31733;DHT22;18312;51.486;7.144;2024-01-15T09:20:59;1.30;99.90
31733;DHT22;18312;51.486;7.144;2024-01-15T09:23:26;1.30;99.90
31733;DHT22;18312;51.486;7.144;2024-01-15T09:25:52;1.30;99.90
31733;DHT22;18312;51.486;7.144;2024-01-15T09:28:19;1.30;99.90
31733;DHT22;18312;51.486;7.144;2024-01-15T09:30:47;1.30;99.90
31733;DHT22;18312;51.486;7.144;2024-01-15T09:33:14;1.20;99.90
31733;DHT22;18312;51.486;7.144;2024-01-15T09:35:41;1.20;99.90
31733;DHT22;18312;51.486;7.144;2024-01-15T09:38:07;1.20;99.90
31733;DHT22;18312;51.486;7.144;2024-01-15T09:40:38;1.10;99.90
31733;DHT22;18312;51.486;7.144;2024-01-15T09:43:05;1.10;99.90
31733;DHT22;18312;51.486;7.144;2024-01-15T09:45:32;1.10;99.90
31733;DHT22;18312;51.486;7.144;2024-01-15T09:48:00;1.00;99.90
31733;DHT22;18312;51.486;7.144;2024-01-15T09:50:27;1.10;99.90
31733;DHT22;18312;51.486;7.144;2024-01-15T09:52:54;1.10;99.90
31733;DHT22;18312;51.486;7.144;2024-01-15T09:55:23;1.20;99.90
31733;DHT22;18312;51.486;7.144;2024-01-15T09:57:49;1.30;99.90
31733;DHT22;18312;51.486;7.144;2024-01-15T10:00:17;1.30;99.90
31733;DHT22;18312;51.486;7.144;2024-01-15T10:02:45;1.20;99.90
31733;DHT22;18312;51.486;7.144;2024-01-15T10:05:13;1.20;99.90
31733;DHT22;18312;51.486;7.144;2024-01-15T10:07:40;1.20;99.90
31733;DHT22;18312;51.486;7.144;2024-01-15T10:10:07;1.20;99.90
31733;DHT22;18312;51.486;7.144;2024-01-15T10:12:34;1.30;99.90
31733;DHT22;18312;51.486;7.144;2024-01-15T10:15:02;1.30;99.90
31733;DHT22;18312;51.486;7.144;2024-01-15T10:17:29;1.50;99.90
31733;DHT22;18312;51.486;7.144;2024-01-15T10:19:56;1.60;99.90
31733;DHT22;18312;51.486;7.144;2024-01-15T10:22:26;1.70;99.90
31733;DHT22;18312;51.486;7.144;2024-01-15T10:24:52;1.60;99.90
31733;DHT22;18312;51.486;7.144;2024-01-15T10:27:19;1.60;99.90
31733;DHT22;18312;51.486;7.144;2024-01-15T10:29:46;1.50;99.90
31733;DHT22;18312;51.486;7.144;2024-01-15T10:32:12;1.60;99.90
31733;DHT22;18312;51.486;7.144;2024-01-15T10:34:40;1.60;99.90
31733;DHT22;18312;51.486;7.144;2024-01-15T10:37:08;1.60;99.90
31733;DHT22;18312;51.486;7.144;2024-01-15T10:39:37;1.70;99.90
31733;DHT22;18312;51.486;7.144;2024-01-15T10:42:04;1.60;99.90
31733;DHT22;18312;51.486;7.144;2024-01-15T10:44:31;1.70;99.90
31733;DHT22;18312;51.486;7.144;2024-01-15T10:46:58;1.60;99.90
31733;DHT22;18312;51.486;7.144;2024-01-15T10:49:25;1.60;99.90
31733;DHT22;18312;51.486;7.144;2024-01-15T10:51:54;1.70;99.90
31733;DHT22;18312;51.486;7.144;2024-01-15T10:54:21;1.70;99.90
31733;DHT22;18312;51.486;7.144;2024-01-15T10:56:51;1.70;99.90
31733;DHT22;18312;51.486;7.144;2024-01-15T10:59:20;1.70;99.90
31733;DHT22;18312;51.486;7.144;2024-01-15T11:01:48;1.70;99.90
31733;DHT22;18312;51.486;7.144;2024-01-15T11:04:15;1.60;99.90
31733;DHT22;18312;51.486;7.144;2024-01-15T11:06:43;1.60;99.90
31733;DHT22;18312;51.486;7.144;2024-01-15T11:09:11;1.70;99.90
31733;DHT22;18312;51.486;7.144;2024-01-15T11:11:40;1.70;99.90
31733;DHT22;18312;51.486;7.144;2024-01-15T11:14:09;1.70;99.90
31733;DHT22;18312;51.486;7.144;2024-01-15T11:16:54;1.70;99.90
31733;DHT22;18312;51.486;7.144;2024-01-15T11:19:21;1.80;99.90
31733;DHT22;18312;51.486;7.144;2024-01-15T11:21:48;1.80;99.90
31733;DHT22;18312;51.486;7.144;2024-01-15T11:24:33;2.00;99.90
31733;DHT22;18312;51.486;7.144;2024-01-15T11:27:00;2.10;99.90
31733;DHT22;18312;51.486;7.144;2024-01-15T11:29:33;2.20;99.90
31733;DHT22;18312;51.486;7.144;2024-01-15T11:32:02;2.20;99.90
31733;DHT22;18312;51.486;7.144;2024-01-15T11:34:53;2.10;99.90
31733;DHT22;18312;51.486;7.144;2024-01-15T11:37:21;2.00;99.90
31733;DHT22;18312;51.486;7.144;2024-01-15T11:39:51;2.10;99.90
31733;DHT22;18312;51.486;7.144;2024-01-15T11:42:20;2.10;99.90
31733;DHT22;18312;51.486;7.144;2024-01-15T11:44:49;2.00;99.90
31733;DHT22;18312;51.486;7.144;2024-01-15T11:47:15;2.10;99.90
31733;DHT22;18312;51.486;7.144;2024-01-15T11:50:01;2.00;99.90
31733;DHT22;18312;51.486;7.144;2024-01-15T11:52:33;2.00;99.90
31733;DHT22;18312;51.486;7.144;2024-01-15T11:55:12;2.10;99.90
31733;DHT22;18312;51.486;7.144;2024-01-15T11:57:42;2.10;99.90
31733;DHT22;18312;51.486;7.144;2024-01-15T12:00:14;2.10;99.90
31733;DHT22;18312;51.486;7.144;2024-01-15T12:02:41;2.00;99.90
31733;DHT22;18312;51.486;7.144;2024-01-15T12:05:08;2.00;99.90
31733;DHT22;18312;51.486;7.144;2024-01-15T12:07:35;2.00;99.90
31733;DHT22;18312;51.486;7.144;2024-01-15T12:10:02;2.00;99.90
31733;DHT22;18312;51.486;7.144;2024-01-15T12:12:43;1.90;99.90
31733;DHT22;18312;51.486;7.144;2024-01-15T12:15:11;2.00;99.90
31733;DHT22;18312;51.486;7.144;2024-01-15T12:17:39;2.00;99.90
31733;DHT22;18312;51.486;7.144;2024-01-15T12:20:07;2.00;99.90
31733;DHT22;18312;51.486;7.144;2024-01-15T12:22:33;2.10;99.90
31733;DHT22;18312;51.486;7.144;2024-01-15T12:25:00;2.10;99.90
31733;DHT22;18312;51.486;7.144;2024-01-15T12:27:27;2.10;99.90
31733;DHT22;18312;51.486;7.144;2024-01-15T12:29:54;2.10;99.90
31733;DHT22;18312;51.486;7.144;2024-01-15T12:32:21;2.20;99.90
31733;DHT22;18312;51.486;7.144;2024-01-15T12:34:50;2.20;99.90
31733;DHT22;18312;51.486;7.144;2024-01-15T12:37:18;2.20;99.90
31733;DHT22;18312;51.486;7.144;2024-01-15T12:39:45;2.30;99.90
31733;DHT22;18312;51.486;7.144;2024-01-15T12:42:14;2.30;99.90
31733;DHT22;18312;51.486;7.144;2024-01-15T12:44:40;2.30;99.90
31733;DHT22;18312;51.486;7.144;2024-01-15T12:47:07;2.20;99.90
31733;DHT22;18312;51.486;7.144;2024-01-15T12:49:36;2.10;99.90
31733;DHT22;18312;51.486;7.144;2024-01-15T12:52:04;2.10;99.90
31733;DHT22;18312;51.486;7.144;2024-01-15T12:54:34;2.10;99.90
31733;DHT22;18312;51.486;7.144;2024-01-15T12:57:00;2.20;99.90
31733;DHT22;18312;51.486;7.144;2024-01-15T12:59:27;2.30;99.90
31733;DHT22;18312;51.486;7.144;2024-01-15T13:01:55;2.40;99.90
31733;DHT22;18312;51.486;7.144;2024-01-15T13:04:22;2.30;99.90
31733;DHT22;18312;51.486;7.144;2024-01-15T13:06:49;2.30;99.90
31733;DHT22;18312;51.486;7.144;2024-01-15T13:09:17;2.20;99.90
31733;DHT22;18312;51.486;7.144;2024-01-15T13:11:44;2.20;99.90
31733;DHT22;18312;51.486;7.144;2024-01-15T13:14:11;2.20;99.90
31733;DHT22;18312;51.486;7.144;2024-01-15T13:16:39;2.20;99.90
31733;DHT22;18312;51.486;7.144;2024-01-15T13:19:07;2.20;99.90
31733;DHT22;18312;51.486;7.144;2024-01-15T13:21:34;2.30;99.90
31733;DHT22;18312;51.486;7.144;2024-01-15T13:24:01;2.40;99.90
31733;DHT22;18312;51.486;7.144;2024-01-15T13:26:32;2.40;99.90
31733;DHT22;18312;51.486;7.144;2024-01-15T13:28:59;2.40;99.90
31733;DHT22;18312;51.486;7.144;2024-01-15T13:31:26;2.40;99.90
31733;DHT22;18312;51.486;7.144;2024-01-15T13:33:53;2.50;99.90
31733;DHT22;18312;51.486;7.144;2024-01-15T13:36:20;2.70;99.90
31733;DHT22;18312;51.486;7.144;2024-01-15T13:38:48;2.80;99.90
31733;DHT22;18312;51.486;7.144;2024-01-15T13:41:15;2.80;99.90
31733;DHT22;18312;51.486;7.144;2024-01-15T13:43:45;3.00;99.90
31733;DHT22;18312;51.486;7.144;2024-01-15T13:46:12;2.80;99.90
31733;DHT22;18312;51.486;7.144;2024-01-15T13:48:38;3.00;99.90
31733;DHT22;18312;51.486;7.144;2024-01-15T13:51:05;3.10;99.90
31733;DHT22;18312;51.486;7.144;2024-01-15T13:53:32;3.20;99.90
31733;DHT22;18312;51.486;7.144;2024-01-15T13:55:59;3.10;99.90
31733;DHT22;18312;51.486;7.144;2024-01-15T13:58:26;3.10;99.90
31733;DHT22;18312;51.486;7.144;2024-01-15T14:00:54;3.00;99.90
31733;DHT22;18312;51.486;7.144;2024-01-15T14:03:22;3.10;99.90
31733;DHT22;18312;51.486;7.144;2024-01-15T14:05:49;3.00;99.90
31733;DHT22;18312;51.486;7.144;2024-01-15T14:08:16;3.00;99.90
31733;DHT22;18312;51.486;7.144;2024-01-15T14:10:43;2.80;99.90
31733;DHT22;18312;51.486;7.144;2024-01-15T14:13:11;2.90;99.90
31733;DHT22;18312;51.486;7.144;2024-01-15T14:15:38;2.80;99.90
31733;DHT22;18312;51.486;7.144;2024-01-15T14:18:07;2.80;99.90
31733;DHT22;18312;51.486;7.144;2024-01-15T14:20:33;2.60;99.90
31733;DHT22;18312;51.486;7.144;2024-01-15T14:23:00;2.60;99.90
31733;DHT22;18312;51.486;7.144;2024-01-15T14:25:27;2.60;99.90
31733;DHT22;18312;51.486;7.144;2024-01-15T14:27:54;2.40;99.90
31733;DHT22;18312;51.486;7.144;2024-01-15T14:30:21;2.50;99.90
31733;DHT22;18312;51.486;7.144;2024-01-15T14:32:47;2.40;99.90
31733;DHT22;18312;51.486;7.144;2024-01-15T14:35:15;2.40;99.90
31733;DHT22;18312;51.486;7.144;2024-01-15T14:37:42;2.30;99.90
31733;DHT22;18312;51.486;7.144;2024-01-15T14:40:09;2.30;99.90
31733;DHT22;18312;51.486;7.144;2024-01-15T14:42:37;2.20;99.90
31733;DHT22;18312;51.486;7.144;2024-01-15T14:45:05;2.20;99.90
31733;DHT22;18312;51.486;7.144;2024-01-15T14:47:37;2.20;99.90
31733;DHT22;18312;51.486;7.144;2024-01-15T14:53:27;2.20;99.90
31733;DHT22;18312;51.486;7.144;2024-01-15T14:55:54;2.30;99.90
31733;DHT22;18312;51.486;7.144;2024-01-15T14:58:22;2.20;99.90
31733;DHT22;18312;51.486;7.144;2024-01-15T15:00:48;2.20;99.90
31733;DHT22;18312;51.486;7.144;2024-01-15T15:03:15;2.20;99.90
31733;DHT22;18312;51.486;7.144;2024-01-15T15:05:43;2.20;99.90
31733;DHT22;18312;51.486;7.144;2024-01-15T15:08:10;2.10;99.90
31733;DHT22;18312;51.486;7.144;2024-01-15T15:10:40;2.10;99.90
31733;DHT22;18312;51.486;7.144;2024-01-15T15:13:07;2.10;99.90
31733;DHT22;18312;51.486;7.144;2024-01-15T15:15:35;2.10;99.90
31733;DHT22;18312;51.486;7.144;2024-01-15T15:18:02;2.10;99.90
31733;DHT22;18312;51.486;7.144;2024-01-15T15:20:31;2.00;99.90
31733;DHT22;18312;51.486;7.144;2024-01-15T15:22:58;2.10;99.90
31733;DHT22;18312;51.486;7.144;2024-01-15T15:25:25;2.00;99.90
31733;DHT22;18312;51.486;7.144;2024-01-15T15:27:53;2.00;99.90
31733;DHT22;18312;51.486;7.144;2024-01-15T15:30:20;1.90;99.90
31733;DHT22;18312;51.486;7.144;2024-01-15T15:32:46;1.80;99.90
31733;DHT22;18312;51.486;7.144;2024-01-15T15:35:13;1.80;99.90
31733;DHT22;18312;51.486;7.144;2024-01-15T15:37:40;1.70;99.90
31733;DHT22;18312;51.486;7.144;2024-01-15T15:40:08;1.70;99.90
31733;DHT22;18312;51.486;7.144;2024-01-15T15:42:36;1.80;99.90
31733;DHT22;18312;51.486;7.144;2024-01-15T15:45:05;1.80;99.90
31733;DHT22;18312;51.486;7.144;2024-01-15T15:47:32;1.90;99.90
31733;DHT22;18312;51.486;7.144;2024-01-15T15:49:59;1.80;99.90
31733;DHT22;18312;51.486;7.144;2024-01-15T15:52:26;1.90;99.90